createdAt,value
2018-06-04T00:01:11.831Z,70.69
2018-06-04T00:03:40.080Z,70.86
2018-06-04T00:06:08.562Z,71.52
2018-06-04T00:08:36.920Z,71.63
2018-06-04T00:11:05.463Z,70.96
2018-06-04T00:13:33.887Z,71.19
2018-06-04T00:16:02.300Z,71.04
2018-06-04T00:18:30.787Z,70.92
2018-06-04T00:20:59.310Z,70.87
2018-06-04T00:23:28.369Z,72.11
2018-06-04T00:25:56.773Z,71.66
2018-06-04T00:28:25.314Z,72.30
2018-06-04T00:30:53.635Z,71.56
2018-06-04T00:33:22.277Z,72.42
2018-06-04T00:35:50.840Z,72.43
2018-06-04T00:38:19.383Z,72.30
2018-06-04T00:40:48.114Z,71.89
2018-06-04T00:43:16.521Z,71.64
2018-06-04T00:45:45.052Z,72.21
2018-06-04T00:48:13.477Z,71.86
2018-06-04T00:50:41.841Z,72.01
2018-06-04T00:53:10.447Z,72.25
2018-06-04T00:55:55.932Z,73.48
2018-06-04T00:58:24.519Z,72.77
2018-06-04T01:00:53.106Z,72.53
2018-06-04T01:03:21.615Z,72.80
2018-06-04T01:05:50.273Z,73.08
2018-06-04T01:08:18.781Z,72.69
2018-06-04T01:10:47.102Z,71.98
2018-06-04T01:13:15.601Z,72.25
2018-06-04T01:15:44.286Z,73.02
2018-06-04T01:18:12.850Z,72.67
2018-06-04T01:20:41.335Z,72.74
2018-06-04T01:23:09.942Z,73.63
2018-06-04T01:25:38.655Z,73.56
2018-06-04T01:28:07.001Z,73.78
2018-06-04T01:30:35.306Z,73.11
2018-06-04T01:33:03.889Z,73.40
2018-06-04T01:35:32.328Z,73.80
2018-06-04T01:38:00.846Z,73.68
2018-06-04T01:40:29.150Z,73.52
2018-06-04T01:42:57.859Z,73.76
2018-06-04T01:45:26.382Z,74.29
2018-06-04T01:47:54.803Z,74.58
2018-06-04T01:50:23.090Z,74.20
2018-06-04T01:52:51.700Z,74.82
2018-06-04T01:55:20.447Z,74.95
2018-06-04T01:57:49.062Z,75.01
2018-06-04T02:00:17.489Z,75.05
2018-06-04T02:02:46.024Z,74.56
2018-06-04T02:05:14.611Z,75.34
2018-06-04T02:07:43.101Z,75.42
2018-06-04T02:10:11.790Z,75.61
2018-06-04T02:12:40.252Z,75.56
2018-06-04T02:15:08.775Z,75.66
2018-06-04T02:17:37.642Z,75.47
2018-06-04T02:20:06.187Z,75.62
2018-06-04T02:22:34.791Z,75.30
2018-06-04T02:25:03.434Z,75.55
2018-06-04T02:27:31.738Z,75.70
2018-06-04T02:30:00.261Z,76.26
2018-06-04T02:32:28.827Z,75.89
2018-06-04T02:34:57.354Z,76.66
2018-06-04T02:37:26.015Z,76.66
2018-06-04T02:39:54.397Z,76.32
2018-06-04T02:42:22.971Z,77.09
2018-06-04T02:44:51.645Z,77.14
2018-06-04T02:47:20.183Z,77.72
2018-06-04T02:49:48.458Z,77.44
2018-06-04T02:52:16.999Z,77.93
2018-06-04T02:54:45.404Z,77.11
2018-06-04T02:57:14.125Z,77.62
2018-06-04T02:59:42.425Z,77.53
2018-06-04T03:02:10.852Z,77.58
2018-06-04T03:04:39.513Z,76.89
2018-06-04T03:07:07.999Z,77.33
2018-06-04T03:09:36.860Z,77.11
2018-06-04T03:12:05.521Z,77.49
2018-06-04T03:14:34.151Z,77.93
2018-06-04T03:17:02.678Z,77.55
2018-06-04T03:19:31.040Z,77.84
2018-06-04T03:21:59.419Z,78.06
2018-06-04T03:24:27.786Z,77.04
2018-06-04T03:26:56.438Z,78.44
2018-06-04T03:29:25.151Z,77.85
2018-06-04T03:31:53.755Z,78.37
2018-06-04T03:34:22.180Z,77.88
2018-06-04T03:36:50.626Z,78.47
2018-06-04T03:39:19.029Z,77.82
2018-06-04T03:41:47.615Z,77.36
2018-06-04T03:44:16.249Z,76.83
2018-06-04T03:46:44.758Z,77.43
2018-06-04T03:49:13.429Z,76.52
2018-06-04T03:51:42.297Z,76.66
2018-06-04T03:54:10.903Z,77.15
2018-06-04T03:56:39.359Z,76.95
2018-06-04T03:59:08.014Z,76.27
2018-06-04T04:01:36.335Z,77.16
2018-06-04T04:04:05.156Z,76.76
2018-06-04T04:06:33.488Z,75.58
2018-06-04T04:09:01.904Z,76.62
2018-06-04T04:11:30.749Z,75.67
2018-06-04T04:13:59.181Z,75.00
2018-06-04T04:16:27.733Z,74.63
2018-06-04T04:18:56.445Z,74.74
2018-06-04T04:21:25.321Z,75.17
2018-06-04T04:23:53.808Z,74.64
2018-06-04T04:26:22.204Z,75.21
2018-06-04T04:28:50.829Z,74.57
2018-06-04T04:31:19.483Z,74.99
2018-06-04T04:33:48.293Z,73.97
2018-06-04T04:36:16.790Z,73.56
2018-06-04T04:38:45.288Z,72.92
2018-06-04T04:41:13.932Z,72.74
2018-06-04T04:43:42.306Z,73.08
2018-06-04T04:46:10.860Z,72.81
2018-06-04T04:48:39.375Z,72.92
2018-06-04T04:51:07.895Z,72.13
2018-06-04T04:53:36.504Z,72.22
2018-06-04T04:56:04.901Z,71.75
2018-06-04T04:58:33.384Z,71.87
2018-06-04T05:01:01.807Z,72.59
2018-06-04T05:03:30.266Z,72.15
2018-06-04T05:05:58.555Z,71.20
2018-06-04T05:08:26.899Z,71.34
2018-06-04T05:10:55.256Z,70.16
2018-06-04T05:13:23.806Z,70.08
2018-06-04T05:15:52.628Z,69.38
2018-06-04T05:18:21.312Z,69.65
2018-06-04T05:20:49.796Z,68.42
2018-06-04T05:23:18.324Z,69.57
2018-06-04T05:25:46.848Z,68.80
2018-06-04T05:28:15.708Z,68.45
2018-06-04T05:30:44.302Z,68.20
2018-06-04T05:33:12.889Z,68.12
2018-06-04T05:35:42.707Z,67.32
2018-06-04T05:38:11.333Z,66.70
2018-06-04T05:40:39.955Z,66.80
2018-06-04T05:43:08.399Z,66.47
2018-06-04T05:45:36.954Z,67.09
2018-06-04T05:48:05.569Z,66.80
2018-06-04T05:50:36.746Z,67.11
2018-06-04T05:53:08.305Z,66.87
2018-06-04T05:55:36.817Z,66.43
2018-06-04T05:58:05.445Z,66.99
2018-06-04T06:00:34.330Z,66.40
2018-06-04T06:03:03.330Z,66.47
2018-06-04T06:05:31.799Z,65.96
2018-06-04T06:08:00.292Z,66.38
2018-06-04T06:10:35.731Z,65.22
2018-06-04T06:13:04.391Z,65.39
2018-06-04T06:15:32.862Z,65.02
2018-06-04T06:18:01.546Z,65.41
2018-06-04T06:20:30.244Z,66.30
2018-06-04T06:22:58.680Z,65.99
2018-06-04T06:25:27.364Z,65.75
2018-06-04T06:27:56.212Z,64.48
2018-06-04T06:30:25.085Z,65.34
2018-06-04T06:32:53.784Z,64.85
2018-06-04T06:35:22.344Z,64.10
2018-06-04T06:37:50.873Z,64.76
2018-06-04T06:40:19.434Z,64.23
2018-06-04T06:42:47.914Z,64.17
2018-06-04T06:45:16.571Z,64.72
2018-06-04T06:47:45.093Z,63.95
2018-06-04T06:50:13.759Z,63.01
2018-06-04T06:52:41.962Z,64.32
2018-06-04T06:55:12.024Z,64.92
2018-06-04T06:57:40.628Z,63.86
2018-06-04T07:00:09.294Z,63.59
2018-06-04T07:02:43.533Z,64.35
2018-06-04T07:05:11.893Z,63.86
2018-06-04T07:07:40.366Z,62.94
2018-06-04T07:10:08.679Z,62.67
2018-06-04T07:12:37.124Z,62.68
2018-06-04T07:15:05.566Z,61.62
2018-06-04T07:17:33.908Z,61.77
2018-06-04T07:20:02.368Z,62.35
2018-06-04T07:22:30.911Z,62.46
2018-06-04T07:24:59.141Z,62.54
2018-06-04T07:27:27.507Z,61.46
2018-06-04T07:29:55.910Z,61.52
2018-06-04T07:32:24.223Z,61.27
2018-06-04T07:34:52.833Z,62.42
2018-06-04T07:37:21.304Z,62.66
2018-06-04T07:39:49.711Z,61.99
2018-06-04T07:42:18.073Z,62.36
2018-06-04T07:44:46.699Z,60.86
2018-06-04T07:47:15.075Z,60.49
2018-06-04T07:49:43.419Z,60.29
2018-06-04T07:52:11.650Z,60.73
2018-06-04T07:54:40.198Z,60.14
2018-06-04T07:57:08.810Z,59.44
2018-06-04T07:59:37.114Z,60.01
2018-06-04T08:02:06.146Z,59.57
2018-06-04T08:04:34.735Z,59.31
2018-06-04T08:07:03.110Z,59.56
2018-06-04T08:09:31.485Z,58.33
2018-06-04T08:12:00.079Z,57.59
2018-06-04T08:14:28.479Z,56.95
2018-06-04T08:16:56.892Z,56.98
2018-06-04T08:19:25.414Z,58.13
2018-06-04T08:21:53.795Z,56.94
2018-06-04T08:24:22.285Z,56.67
2018-06-04T08:26:50.670Z,57.67
2018-06-04T08:29:19.197Z,57.71
2018-06-04T08:31:47.555Z,56.69
2018-06-04T08:34:15.915Z,56.91
2018-06-04T08:36:44.318Z,56.97
2018-06-04T08:39:12.675Z,56.65
2018-06-04T08:41:41.034Z,57.60
2018-06-04T08:44:09.247Z,56.70
2018-06-04T08:46:37.547Z,55.54
2018-06-04T08:49:05.846Z,55.25
2018-06-04T08:51:34.264Z,55.96
2018-06-04T08:54:02.719Z,56.59
2018-06-04T08:56:31.167Z,55.44
2018-06-04T08:58:59.653Z,55.71
2018-06-04T09:01:28.118Z,56.17
2018-06-04T09:03:56.551Z,55.43
2018-06-04T09:06:24.915Z,54.01
2018-06-04T09:08:53.343Z,55.25
2018-06-04T09:11:21.839Z,55.69
2018-06-04T09:13:50.259Z,55.37
2018-06-04T09:16:18.771Z,56.60
2018-06-04T09:18:47.141Z,54.00
2018-06-04T09:21:15.622Z,55.00
2018-06-04T09:23:44.044Z,54.38
2018-06-04T09:26:12.471Z,53.95
2018-06-04T09:28:40.802Z,53.35
2018-06-04T09:31:09.235Z,53.14
2018-06-04T09:33:37.867Z,53.55
2018-06-04T09:36:06.047Z,51.94
2018-06-04T09:38:34.428Z,51.41
2018-06-04T09:41:02.875Z,52.84
2018-06-04T09:43:31.170Z,54.00
2018-06-04T09:45:59.575Z,52.09
2018-06-04T09:48:28.125Z,51.04
2018-06-04T09:50:56.583Z,51.56
2018-06-04T09:53:24.916Z,50.91
2018-06-04T09:55:53.558Z,53.02
2018-06-04T09:58:21.841Z,54.01
2018-06-04T10:00:50.132Z,54.90
2018-06-04T10:03:18.529Z,54.75
2018-06-04T10:05:48.925Z,53.70
2018-06-04T10:08:17.892Z,53.00
2018-06-04T10:10:47.680Z,54.10
2018-06-04T10:13:17.082Z,52.17
2018-06-04T10:15:46.486Z,53.55
2018-06-04T10:18:14.923Z,54.01
2018-06-04T10:20:43.456Z,54.27
2018-06-04T10:23:11.758Z,52.84
2018-06-04T10:25:40.126Z,53.44
2018-06-04T10:28:08.519Z,52.46
2018-06-04T10:30:36.917Z,51.29
2018-06-04T10:33:05.412Z,51.28
2018-06-04T10:35:33.891Z,50.91
2018-06-04T10:38:02.270Z,52.59
2018-06-04T10:40:30.699Z,51.48
2018-06-04T10:42:59.020Z,51.25
2018-06-04T10:45:27.539Z,51.31
2018-06-04T10:47:56.045Z,50.62
2018-06-04T10:50:24.502Z,51.01
2018-06-04T10:52:53.013Z,51.77
2018-06-04T10:55:21.361Z,50.72
2018-06-04T10:57:51.295Z,51.96
2018-06-04T11:00:19.532Z,51.07
2018-06-04T11:02:48.099Z,50.44
2018-06-04T11:05:16.544Z,51.22
2018-06-04T11:07:45.006Z,48.65
2018-06-04T11:10:13.746Z,49.21
2018-06-04T11:12:42.327Z,48.56
2018-06-04T11:15:10.673Z,49.29
2018-06-04T11:17:39.125Z,50.68
2018-06-04T11:20:07.460Z,50.26
2018-06-04T11:22:35.973Z,49.06
2018-06-04T11:25:04.345Z,51.00
2018-06-04T11:27:32.750Z,48.18
2018-06-04T11:30:01.148Z,47.42
2018-06-04T11:32:29.530Z,47.24
2018-06-04T11:34:58.053Z,46.52
2018-06-04T11:37:26.428Z,48.71
2018-06-04T11:39:54.785Z,49.93
2018-06-04T11:42:23.112Z,51.06
2018-06-04T11:44:51.497Z,50.69
2018-06-04T11:47:19.941Z,50.36
2018-06-04T11:49:48.391Z,50.28
2018-06-04T11:52:16.858Z,52.59
2018-06-04T11:54:45.274Z,51.71
2018-06-04T11:57:13.644Z,50.50
2018-06-04T11:59:43.081Z,51.38
2018-06-04T12:02:12.855Z,50.94
2018-06-04T12:04:41.294Z,51.47
2018-06-04T12:09:34.130Z,51.57
2018-06-04T12:12:02.771Z,51.05
2018-06-04T12:14:31.156Z,50.82
2018-06-04T12:16:59.670Z,50.64
2018-06-04T12:19:28.159Z,52.71
2018-06-04T12:21:56.747Z,51.63
2018-06-04T12:24:25.643Z,51.41
2018-06-04T12:26:54.206Z,53.50
2018-06-04T12:29:22.698Z,52.97
2018-06-04T12:31:51.044Z,53.73
2018-06-04T12:34:19.619Z,52.41
2018-06-04T12:36:48.158Z,52.54
2018-06-04T12:39:16.642Z,53.01
2018-06-04T12:41:45.169Z,52.77
2018-06-04T12:44:15.673Z,53.29
2018-06-04T12:46:44.205Z,53.34
2018-06-04T12:49:12.959Z,53.40
2018-06-04T12:51:41.285Z,53.40
2018-06-04T12:54:10.684Z,52.13
2018-06-04T12:56:39.556Z,52.81
2018-06-04T12:59:07.973Z,53.22
2018-06-04T13:01:36.715Z,53.80
2018-06-04T13:04:05.348Z,53.53
2018-06-04T13:06:33.894Z,53.23
2018-06-04T13:09:03.726Z,53.79
2018-06-04T13:11:32.544Z,53.62
2018-06-04T13:14:01.741Z,53.67
2018-06-04T13:16:30.384Z,52.36
2018-06-04T13:18:59.199Z,52.93
2018-06-04T13:21:27.710Z,53.37
2018-06-04T13:23:56.134Z,52.58
2018-06-04T13:26:24.736Z,52.50
2018-06-04T13:28:53.270Z,51.68
2018-06-04T13:31:22.147Z,51.54
2018-06-04T13:33:50.691Z,52.38
2018-06-04T13:36:19.153Z,51.82
2018-06-04T13:38:47.795Z,50.94
2018-06-04T13:41:16.807Z,50.87
2018-06-04T13:43:45.804Z,49.91
2018-06-04T13:46:14.730Z,48.42
2018-06-04T13:48:43.161Z,48.76
2018-06-04T13:51:11.621Z,49.76
2018-06-04T13:53:40.334Z,51.45
2018-06-04T13:56:08.858Z,50.77
2018-06-04T13:58:37.699Z,50.51
2018-06-04T14:01:06.464Z,50.38
2018-06-04T14:03:35.382Z,51.73
2018-06-04T14:06:03.773Z,49.96
2018-06-04T14:08:32.829Z,49.74
2018-06-04T14:11:01.568Z,49.12
2018-06-04T14:13:30.190Z,48.11
2018-06-04T14:15:58.711Z,48.93
2018-06-04T14:18:28.007Z,47.55
2018-06-04T14:20:56.997Z,50.17
2018-06-04T14:23:25.747Z,50.55
2018-06-04T14:25:54.960Z,51.70
2018-06-04T14:28:23.376Z,51.29
2018-06-04T14:30:53.954Z,52.58
2018-06-04T14:34:10.214Z,52.84
2018-06-04T14:36:38.739Z,54.65
2018-06-04T14:39:09.131Z,53.52
2018-06-04T14:41:37.820Z,53.89
2018-06-04T14:44:06.315Z,51.76
2018-06-04T14:46:34.879Z,51.21
2018-06-04T14:49:03.609Z,51.82
2018-06-04T14:51:32.316Z,50.94
2018-06-04T14:54:00.673Z,51.50
2018-06-04T14:56:29.208Z,50.54
2018-06-04T14:58:57.765Z,51.22
2018-06-04T15:01:26.252Z,51.09
2018-06-04T15:03:55.214Z,52.31
2018-06-04T15:06:23.587Z,51.45
2018-06-04T15:08:51.923Z,51.30
2018-06-04T15:11:20.443Z,50.37
2018-06-04T15:13:49.021Z,49.54
2018-06-04T15:16:17.559Z,50.91
2018-06-04T15:18:47.480Z,50.90
2018-06-04T15:21:15.979Z,50.79
2018-06-04T15:23:44.412Z,50.00
2018-06-04T15:26:13.149Z,50.03
2018-06-04T15:28:41.663Z,49.89
2018-06-04T15:31:10.108Z,50.91
2018-06-04T15:33:38.768Z,51.33
2018-06-04T15:36:07.558Z,50.20
2018-06-04T15:38:36.192Z,50.89
2018-06-04T15:41:04.745Z,51.06
2018-06-04T15:43:33.263Z,51.99
2018-06-04T15:46:02.017Z,52.45
2018-06-04T15:48:30.469Z,52.41
2018-06-04T15:50:58.994Z,52.22
2018-06-04T15:53:27.488Z,51.37
2018-06-04T15:55:56.452Z,52.24
2018-06-04T15:58:25.372Z,52.10
2018-06-04T16:00:53.921Z,52.90
2018-06-04T16:03:22.611Z,51.70
2018-06-04T16:05:51.553Z,52.96
2018-06-04T16:08:20.019Z,52.18
2018-06-04T16:10:48.899Z,52.88
2018-06-04T16:13:17.547Z,53.05
2018-06-04T16:15:46.195Z,53.09
2018-06-04T16:18:14.967Z,53.24
2018-06-04T16:20:43.649Z,52.26
2018-06-04T16:23:12.046Z,53.47
2018-06-04T16:25:40.405Z,53.10
2018-06-04T16:28:08.839Z,53.51
2018-06-04T16:30:37.423Z,53.16
2018-06-04T16:33:06.271Z,54.09
2018-06-04T16:35:34.957Z,52.61
2018-06-04T16:38:03.415Z,53.10
2018-06-04T16:40:31.893Z,53.67
2018-06-04T16:43:00.406Z,53.16
2018-06-04T16:45:29.034Z,53.80
2018-06-04T16:47:57.607Z,53.87
2018-06-04T16:50:26.376Z,53.45
2018-06-04T16:52:54.994Z,53.80
2018-06-04T16:55:23.525Z,54.34
2018-06-04T16:57:52.313Z,53.81
2018-06-04T17:00:20.866Z,53.65
2018-06-04T17:02:49.350Z,53.48
2018-06-04T17:05:17.749Z,53.76
2018-06-04T17:07:46.177Z,53.88
2018-06-04T17:10:14.707Z,54.11
2018-06-04T17:12:43.362Z,53.51
2018-06-04T17:15:12.044Z,54.85
2018-06-04T17:17:40.700Z,54.27
2018-06-04T17:20:09.041Z,53.70
2018-06-04T17:22:37.636Z,53.66
2018-06-04T17:25:06.255Z,53.50
2018-06-04T17:27:34.732Z,53.55
2018-06-04T17:30:03.746Z,53.83
2018-06-04T17:32:32.327Z,54.97
2018-06-04T17:35:00.800Z,54.63
2018-06-04T17:37:29.667Z,54.61
2018-06-04T17:39:58.209Z,54.89
2018-06-04T17:42:26.823Z,54.38
2018-06-04T17:44:55.652Z,54.37
2018-06-04T17:47:24.248Z,54.25
2018-06-04T17:49:52.965Z,55.61
2018-06-04T17:52:21.459Z,55.63
2018-06-04T17:54:50.072Z,54.94
2018-06-04T17:57:18.433Z,54.87
2018-06-04T17:59:47.046Z,54.05
2018-06-04T18:02:15.604Z,54.88
2018-06-04T18:04:44.020Z,54.98
2018-06-04T18:07:12.499Z,54.18
2018-06-04T18:09:41.311Z,54.45
2018-06-04T18:12:09.988Z,55.44
2018-06-04T18:14:38.857Z,55.44
2018-06-04T18:17:07.299Z,55.66
2018-06-04T18:19:35.706Z,56.13
2018-06-04T18:22:04.144Z,55.65
2018-06-04T18:24:32.943Z,56.30
2018-06-04T18:27:01.611Z,56.43
2018-06-04T18:29:30.547Z,55.68
2018-06-04T18:31:58.998Z,55.96
2018-06-04T18:34:27.856Z,57.08
2018-06-04T18:36:56.375Z,57.56
2018-06-04T18:39:24.881Z,57.19
2018-06-04T18:41:53.300Z,56.62
2018-06-04T18:44:21.783Z,56.76
2018-06-04T18:46:50.358Z,56.75
2018-06-04T18:49:19.271Z,56.80
2018-06-04T18:51:47.727Z,56.77
2018-06-04T18:54:16.289Z,57.73
2018-06-04T18:56:44.893Z,57.97
2018-06-04T18:59:13.287Z,58.46
2018-06-04T19:01:41.857Z,58.44
2018-06-04T19:04:10.243Z,58.36
2018-06-04T19:06:38.854Z,58.54
2018-06-04T19:09:09.465Z,59.21
2018-06-04T19:11:38.532Z,59.41
2018-06-04T19:14:06.873Z,59.70
2018-06-04T19:16:35.475Z,59.25
2018-06-04T19:19:04.037Z,59.51
2018-06-04T19:21:32.667Z,59.44
2018-06-04T19:24:01.236Z,59.68
2018-06-04T19:26:29.977Z,59.99
2018-06-04T19:28:58.677Z,60.35
2018-06-04T19:31:27.137Z,60.67
2018-06-04T19:33:55.620Z,61.12
2018-06-04T19:36:24.228Z,62.31
2018-06-04T19:38:52.719Z,61.46
2018-06-04T19:41:21.385Z,61.56
2018-06-04T19:43:50.063Z,61.60
2018-06-04T19:46:18.720Z,62.57
2018-06-04T19:48:47.156Z,63.60
2018-06-04T19:51:15.932Z,63.56
2018-06-04T19:53:44.487Z,63.23
2018-06-04T19:56:13.082Z,63.51
2018-06-04T19:58:41.600Z,63.67
2018-06-04T20:01:10.221Z,64.47
2018-06-04T20:03:38.854Z,64.27
2018-06-04T20:06:07.593Z,64.65
2018-06-04T20:08:36.056Z,64.48
2018-06-04T20:11:04.700Z,64.25
2018-06-04T20:13:33.373Z,64.19
2018-06-04T20:16:02.325Z,64.17
2018-06-04T20:18:30.893Z,64.09
2018-06-04T20:20:59.516Z,65.35
2018-06-04T20:23:28.041Z,65.44
2018-06-04T20:25:56.672Z,64.96
2018-06-04T20:28:25.181Z,65.62
2018-06-04T20:30:53.559Z,66.17
2018-06-04T20:33:22.144Z,65.49
2018-06-04T20:35:51.261Z,65.68
2018-06-04T20:38:20.067Z,66.46
2018-06-04T20:40:48.722Z,65.78
2018-06-04T20:43:17.340Z,66.03
2018-06-04T20:45:45.902Z,66.42
2018-06-04T20:48:14.892Z,67.06
2018-06-04T20:50:43.636Z,67.58
2018-06-04T20:53:12.226Z,67.75
2018-06-04T20:55:40.579Z,67.75
2018-06-04T20:58:09.194Z,68.22
2018-06-04T21:00:37.871Z,67.32
2018-06-04T21:03:06.325Z,68.24
2018-06-04T21:05:34.908Z,68.11
2018-06-04T21:08:03.347Z,69.08
2018-06-04T21:10:32.159Z,69.59
2018-06-04T21:13:00.934Z,69.70
2018-06-04T21:15:29.354Z,70.06
2018-06-04T21:17:58.241Z,70.24
2018-06-04T21:20:26.659Z,69.66
2018-06-04T21:22:55.043Z,70.17
2018-06-04T21:25:23.280Z,69.93
2018-06-04T21:27:51.721Z,70.55
2018-06-04T21:30:20.344Z,70.16
2018-06-04T21:32:48.978Z,70.57
2018-06-04T21:35:17.626Z,70.46
2018-06-04T21:37:46.200Z,70.32
2018-06-04T21:40:14.778Z,71.84
2018-06-04T21:42:43.260Z,71.72
2018-06-04T21:45:12.782Z,71.30
2018-06-04T21:47:41.562Z,71.37
2018-06-04T21:50:10.032Z,71.88
2018-06-04T21:52:38.634Z,72.39
2018-06-04T21:55:07.586Z,72.22
2018-06-04T21:57:36.114Z,72.37
2018-06-04T22:00:07.848Z,73.58
2018-06-04T22:02:37.578Z,72.73
2018-06-04T22:05:06.242Z,73.04
2018-06-04T22:07:35.234Z,73.69
2018-06-04T22:10:04.169Z,73.00
2018-06-04T22:12:32.621Z,74.07
2018-06-04T22:15:01.068Z,74.12
2018-06-04T22:17:29.460Z,74.71
2018-06-04T22:19:57.900Z,73.72
2018-06-04T22:22:26.300Z,74.04
2018-06-04T22:24:54.720Z,74.27
2018-06-04T22:27:23.158Z,74.09
2018-06-04T22:29:51.588Z,73.88
2018-06-04T22:32:19.884Z,74.13
2018-06-04T22:34:48.286Z,74.70
2018-06-04T22:37:16.703Z,74.87
2018-06-04T22:39:45.003Z,74.41
2018-06-04T22:42:13.587Z,75.43
2018-06-04T22:44:42.355Z,74.81
2018-06-04T22:47:11.351Z,75.12
2018-06-04T22:49:39.596Z,75.16
2018-06-04T22:52:08.058Z,75.27
2018-06-04T22:54:36.447Z,75.61
2018-06-04T22:57:04.797Z,75.66
2018-06-04T22:59:33.409Z,74.98
2018-06-04T23:02:01.792Z,75.74
2018-06-04T23:04:30.222Z,76.41
2018-06-04T23:06:58.592Z,75.80
2018-06-04T23:09:27.004Z,75.78
2018-06-04T23:11:55.522Z,74.87
2018-06-04T23:14:23.892Z,75.48
2018-06-04T23:16:52.301Z,76.38
2018-06-04T23:19:20.726Z,76.15
2018-06-04T23:21:48.957Z,76.14
2018-06-04T23:24:17.310Z,76.24
2018-06-04T23:26:45.545Z,77.34
2018-06-04T23:29:13.969Z,76.51
2018-06-04T23:31:42.355Z,77.25
2018-06-04T23:34:10.750Z,76.88
2018-06-04T23:36:39.139Z,76.98
2018-06-04T23:39:08.552Z,77.29
2018-06-04T23:41:37.195Z,76.91
2018-06-04T23:44:05.661Z,77.09
2018-06-04T23:46:33.949Z,77.15
2018-06-04T23:49:02.221Z,77.49
2018-06-04T23:51:30.685Z,77.60
2018-06-04T23:53:59.002Z,78.41
2018-06-04T23:56:27.482Z,77.70
2018-06-04T23:58:55.903Z,77.87
